Kelly, WY (83011)

8:05 AM MST on February 14, 2016 (GMT -0700)
Jackson Hole | | Change Station
CLOSE
Current Station
Airport
Location: Jackson,
Elevation: 6450 ft
Nearby Weather Stations
Active Advisory: Winter Storm Warning

Elev 6450 ft 43.61 °N, 110.74 °W | Updated 10 minutes ago

Overcast
Overcast
32 °F
Feels Like 19 °F
N
23
Wind Variable Wind from SW

Today
High -- | Low -- °F
--% Chance of Precip.
Yesterday
High -- | Low -- °F
Precip. -- in
Pressure 30.01 in
Visibility 7.0 miles
Clouds Few 3400 ft
Scattered Clouds 4400 ft
Overcast 6000 ft
Windchill 19 °F
Dew Point 28 °F
Humidity 87%
Rainfall 0.00 in
Snow Depth Not available.
7:21 AM 5:49 PM
Waxing Crescent, 42% visible
METAR KJAC 141455Z 22020KT 7SM VCSH FEW034 SCT044 OVC060 00/M02 A3001
Pressure 30.01 in
Visibility 7.0 miles
Clouds Few 3400 ft
Scattered Clouds 4400 ft
Overcast 6000 ft
Windchill 19 °F
Dew Point 28 °F
Humidity 87%
Rainfall 0.00 in
Snow Depth Not available.
7:21 AM 5:49 PM
Waxing Crescent, 42% visible
METAR KJAC 141455Z 22020KT 7SM VCSH FEW034 SCT044 OVC060 00/M02 A3001

10-Day Weather Forecast

Almanac

Astronomy

Feb. 14, 2016 Rise Set
Actual Time
Civil Twilight
Nautical Twilight
Astronomical Twilight
Moon
Length of Visible Light
Length of Day
Tomorrow will be .
, % of the Moon is Illuminated

Today's Extremes

State Highs State Lows

Community

WunderPhotos

Upload Photos

1,892,782 photos uploaded!

WunderBlog® & News

Nearby

Air Quality

  Air Quality AQ Index Pollutant
Not available.

Snow Depth

Station Depth Elevation

Earthquake Activity

City Distance Mag. Time & Date
Minimum magnitude displayed is 2.5.

Coastal Water Temperatures

Place Temperature

Stations

Nearby Weather Stations

Station Location Temp. Windchill Dew Point Humidity Wind Precip. Elev Updated Type
                   

Watches & Warnings

Winter Storm Warning
Issued: 5:57 AM MST Feb. 14, 2016 – National Weather Service

... Winter Storm Warning remains in effect until 5 PM MST Monday...

* timing... periods of snow... heavy at times... through the day
Monday.

* Snow accumulation... 10 to 20 inches with locally higher
amounts.

* Wind and visibility... west winds 20 to 30 mph with gusts to 40
mph on the passes. As wind increases... visibility below a
quarter mile in heavy snow and blowing snow is expected.

* Main impact... travel will become difficult on the mountain
passes with snow packed and icy roads and poor visibility.
Before traveling... motorists should check current Road
conditions by visiting wyoroad.Info or by dialing 511. If your
plans include travel into the back country... please monitor
jhavalanche.Org.

Precautionary/preparedness actions...

A Winter Storm Warning for heavy snow means severe winter weather
conditions are expected or occurring. Significant amounts of
snow are forecast that will make travel dangerous. If you must
travel... keep an extra flashlight... food... and water in your
vehicle in case of an emergency.